Weather observations for the past three days for
Sand Point
| Date | Time (akdt) | Wind (kph) | Vis. (km) | Weather | Sky Cond. | Temperature (ºC) | Relative Humidity | Wind Chill (°C) | Heat Index (°C) | Pressure | Precipitation (cm) | ||||||
|---|---|---|---|---|---|---|---|---|---|---|---|---|---|---|---|---|---|
| Air | Dwpt | 6 hour | altimeter (cm) | sea level (mb) | 1 hr | 3 hr | 6 hr | ||||||||||
| Max. | Min. | ||||||||||||||||
| 04 | 12:56 | N 30 | 16.09 | Light Rain | FEW017 BKN026 OVC045 | 3.3 | 1.1 | 86% | -2 | 74.98 | 999.8 | ||||||
| 04 | 11:56 | N 31 G 39 | 16.09 | Light Rain | FEW017 BKN024 OVC032 | 2.8 | 1.1 | 89% | -3 | 74.98 | 1000.0 | ||||||
| 04 | 10:56 | N 28 G 39 | 16.09 | Light Rain | FEW017 BKN024 OVC032 | 3.3 | 1.7 | 89% | -2 | 75.01 | 1000.2 | ||||||
| 04 | 09:56 | N 28 | 16.09 | Light Rain | FEW017 BKN020 OVC050 | 3.3 | 1.7 | 3.9 | 2.2 | 89% | -2 | 75.03 | 1000.7 | ||||
| 04 | 08:56 | N 22 | 16.09 | Light Rain | FEW015 BKN020 OVC035 | 3.3 | 1.7 | 89% | -1 | 75.08 | 1001.3 | ||||||
| 04 | 07:56 | N 15 | 16.09 | Light Rain | FEW015 BKN020 OVC030 | 3.3 | 2.2 | 93% | 0 | 75.13 | 1001.8 | ||||||
| 04 | 06:56 | N 26 | 16.09 | Light Rain | BKN022 OVC030 | 3.3 | 1.7 | 89% | -1 | 75.18 | 1002.4 | ||||||
| 04 | 05:56 | N 31 | 16.09 | Light Rain | BKN025 OVC030 | 3.3 | 1.1 | 86% | -2 | 75.26 | 1003.5 | ||||||
| 04 | 04:56 | N 30 | 16.09 | Unknown Precip | FEW024 OVC038 | 2.8 | 1.1 | 89% | -2 | 75.34 | 1004.6 | ||||||
| 04 | 03:56 | N 26 | 16.09 | Light Rain | SCT026 OVC033 | 2.8 | 0.6 | 3.9 | 2.2 | 86% | -2 | 75.44 | 1006.0 | ||||
| 04 | 02:56 | N 26 | 16.09 | Overcast | OVC032 | 2.8 | -0.6 | 79% | -2 | 75.57 | 1007.6 | ||||||
| 04 | 01:56 | N 31 | 16.09 | Overcast | SCT039 BKN055 OVC070 | 2.8 | -0.6 | 79% | -3 | 75.64 | 1008.5 | ||||||
| 04 | 00:56 | N 33 G 44 | 16.09 | Overcast and Breezy | SCT046 OVC060 | 2.8 | -0.6 | 79% | -3 | 75.72 | 1009.8 | ||||||
| 03 | 23:56 | N 33 G 43 | 16.09 | Overcast and Breezy | FEW070 OVC100 | 3.3 | -0.6 | 76% | -2 | 75.77 | 1010.4 | ||||||
| 03 | 22:56 | N 28 | 16.09 | Mostly Cloudy | BKN120 | 3.3 | -0.6 | 76% | -2 | 75.82 | 1011.1 | ||||||
| 03 | 21:56 | N 26 | 16.09 | Partly Cloudy | FEW095 SCT120 | 3.9 | -0.6 | 7.8 | 3.9 | 73% | -1 | 75.84 | 1011.4 | ||||
| 03 | 20:56 | N 26 G 37 | 16.09 | Fair | CLR | 5 | -0.6 | 67% | 1 | 75.87 | 1011.8 | ||||||
| 03 | 19:56 | N 24 | 16.09 | Fair | CLR | 5.6 | 0 | 68% | 2 | 75.95 | 1012.5 | ||||||
| 03 | 18:56 | N 24 | 16.09 | Partly Cloudy | FEW025 FEW050 SCT100 | 6.7 | 0.6 | 65% | 3 | 75.95 | 1012.8 | ||||||
| 03 | 17:56 | N 22 | 16.09 | Partly Cloudy | FEW025 FEW050 SCT100 | 7.2 | 1.1 | 66% | 4 | 76 | 1013.4 | ||||||
| 03 | 16:56 | N 17 | 16.09 | Mostly Cloudy | FEW025 SCT050 BKN100 | 7.8 | 1.7 | 66% | 5 | 76.05 | 1014.1 | ||||||
| 03 | 15:56 | N 19 | 16.09 | Partly Cloudy | FEW030 SCT065 SCT075 | 7.8 | 1.7 | 7.8 | 1.7 | 66% | 5 | 76.1 | 1014.6 | ||||
| 03 | 14:56 | N 17 | 16.09 | Mostly Cloudy | FEW030 SCT065 BKN075 | 7.8 | 2.2 | 68% | 5 | 76.12 | 1015.0 | ||||||
| 03 | 13:56 | N 20 | 16.09 | Mostly Cloudy | FEW030 SCT055 BKN065 | 6.7 | 1.7 | 71% | 3 | 76.15 | 1015.6 | ||||||
| 03 | 12:56 | N 13 | 16.09 | Mostly Cloudy | FEW027 SCT055 BKN065 | 6.7 | 2.2 | 73% | 4 | 76.17 | 1015.9 | ||||||
| 03 | 11:56 | N 13 | 16.09 | Mostly Cloudy | FEW025 BKN055 BKN065 | 6.1 | 2.2 | 76% | 4 | 76.2 | 1016.1 | ||||||
| 03 | 10:56 | N 17 | 16.09 | Mostly Cloudy | FEW025 BKN055 BKN065 | 5.6 | 1.7 | 76% | 3 | 76.2 | 1016.1 | ||||||
| 03 | 09:56 | N 11 | 16.09 | Mostly Cloudy | FEW023 BKN055 BKN065 | 4.4 | 2.2 | 4.4 | 0.6 | 86% | 2 | 76.23 | 1016.4 | ||||
| 03 | 08:56 | N 6 | 16.09 | Mostly Cloudy | FEW026 BKN055 BKN065 | 2.8 | 2.2 | 96% | 76.23 | 1016.4 | |||||||
| 03 | 07:56 | Calm | 16.09 | Mostly Cloudy | FEW020 BKN055 BKN065 | 1.1 | 1.1 | 100% | 76.23 | 1016.5 | |||||||
| 03 | 06:56 | Calm | 16.09 | Mostly Cloudy | FEW055 BKN065 | 1.1 | 1.1 | 100% | 76.23 | 1016.6 | |||||||
| 03 | 05:56 | Calm | 16.09 | Fair | CLR | 1.1 | 0.6 | 97% | 76.23 | 1016.5 | |||||||
| 03 | 04:56 | Calm | 16.09 | Fair | CLR | 1.1 | 1.1 | 100% | 76.23 | 1016.6 | |||||||
| 03 | 03:56 | Calm | 2.01 | Fog/Mist | OVC001 | 1.7 | 1.7 | 5.6 | 1.1 | 100% | 76.25 | 1016.8 | |||||
| 03 | 02:56 | Calm | 16.09 | Partly Cloudy | SCT001 | 1.7 | 1.7 | 100% | 76.28 | 1017.1 | |||||||
| 03 | 01:56 | N 6 | 0.40 | Fog | OVC001 | 2.2 | 1.7 | 97% | 76.28 | 1017.1 | |||||||
| 03 | 00:56 | Calm | 1.21 | Fog/Mist | BKN001 | 2.2 | 1.7 | 97% | 76.28 | 1017.1 | |||||||
| 02 | 23:56 | Calm | 16.09 | Partly Cloudy | SCT033 | 3.3 | 1.7 | 89% | 76.28 | 1017.1 | |||||||
| 02 | 22:56 | Calm | 16.09 | Fair | CLR | 3.9 | 1.7 | 86% | 76.25 | 1016.7 | |||||||
| 02 | 21:56 | Calm | 16.09 | Fair | CLR | 5.6 | 1.7 | 7.8 | 5.6 | 76% | 76.2 | 1016.2 | |||||
| 02 | 20:56 | NE 15 | 16.09 | Fair | CLR | 5.6 | 2.8 | 82% | 3 | 76.17 | 1015.8 | ||||||
| 02 | 19:56 | SE 9 | 16.09 | Mostly Cloudy | BKN041 | 7.2 | 0 | 61% | 6 | 76.15 | 1015.6 | ||||||
| 02 | 18:56 | S 13 | 16.09 | Partly Cloudy | FEW022 FEW035 SCT050 | 7.2 | 1.7 | 68% | 5 | 76.12 | 1015.1 | ||||||
| 02 | 17:56 | S 17 | 16.09 | Partly Cloudy | FEW022 FEW035 SCT050 | 7.2 | 2.2 | 71% | 5 | 76.12 | 1014.9 | ||||||
| 02 | 16:56 | SE 19 | 16.09 | Partly Cloudy | FEW022 FEW035 SCT050 | 7.2 | 3.3 | 77% | 4 | 76.1 | 1014.9 | ||||||
| 02 | 15:56 | SE 19 | 16.09 | Partly Cloudy | FEW022 FEW035 SCT050 | 6.7 | 2.8 | 7.8 | 5 | 76% | 4 | 76.1 | 1014.6 | ||||
| 02 | 14:56 | SE 17 | 16.09 | Partly Cloudy | FEW022 FEW035 SCT050 | 6.1 | 3.3 | 82% | 3 | 76.1 | 1014.7 | ||||||
| 02 | 13:56 | SE 17 | 16.09 | Partly Cloudy | FEW022 FEW035 SCT050 | 6.7 | 3.3 | 79% | 4 | 76.07 | 1014.6 | ||||||
| 02 | 12:56 | S 17 | 16.09 | Mostly Cloudy | FEW022 SCT033 BKN050 | 6.7 | 0.6 | 65% | 4 | 76.07 | 1014.3 | ||||||
| 02 | 11:56 | S 17 | 16.09 | Mostly Cloudy | FEW022 SCT033 BKN050 | 6.1 | 1.1 | 71% | 3 | 76 | 1013.5 | ||||||
| 02 | 10:56 | S 20 | 16.09 | Mostly Cloudy | FEW019 SCT024 BKN031 | 5.6 | 2.8 | 82% | 2 | 75.95 | 1012.8 | ||||||
| 02 | 09:56 | S 19 | 16.09 | Mostly Cloudy | FEW019 SCT025 BKN033 | 5.6 | 1.1 | 5.6 | 3.9 | 73% | 2 | 75.9 | 1012.1 | ||||
| 02 | 08:56 | S 22 | 16.09 | Mostly Cloudy | FEW019 SCT025 BKN037 | 5 | 3.3 | 89% | 1 | 75.84 | 1011.3 | ||||||
| 02 | 07:56 | S 11 | 16.09 | Mostly Cloudy | FEW021 SCT028 BKN039 | 3.9 | 1.7 | 86% | 1 | 75.79 | 1010.5 | ||||||
| 02 | 06:56 | S 15 | 16.09 | Mostly Cloudy | FEW016 SCT022 BKN030 | 3.9 | 2.2 | 89% | 1 | 75.74 | 1009.8 | ||||||
| 02 | 05:56 | S 22 | 16.09 | Light Rain | BKN014 OVC021 | 4.4 | 2.8 | 89% | 0 | 75.69 | 1009.3 | ||||||
| 02 | 04:56 | S 26 | 16.09 | Light Rain | SCT012 BKN020 BKN036 | 4.4 | 3.3 | 93% | 0 | 75.62 | 1008.3 | ||||||
| 02 | 03:56 | S 30 | 16.09 | Overcast | OVC014 | 5 | 3.3 | 5 | 4.4 | 89% | 0 | 75.57 | 1007.6 | ||||
| 02 | 02:56 | S 30 | 16.09 | Overcast | OVC012 | 5 | 3.9 | 93% | 0 | 75.51 | 1007.0 | ||||||
| 02 | 01:56 | S 30 | 12.87 | Light Rain | OVC010 | 5 | 3.9 | 93% | 0 | 75.46 | 1006.4 | ||||||
| 02 | 00:56 | S 24 | 16.09 | Overcast | BKN016 OVC025 | 5 | 3.3 | 89% | 1 | 75.44 | 1005.9 | ||||||
| 01 | 23:56 | S 35 | 16.09 | Overcast and Breezy | FEW017 BKN035 OVC042 | 5 | 2.2 | 82% | 0 | 75.39 | 1005.2 | ||||||
| 01 | 22:56 | S 33 G 43 | 16.09 | Overcast and Breezy | OVC025 | 5 | 1.1 | 76% | 0 | 75.31 | 1004.2 | ||||||
| 01 | 21:56 | S 24 G 33 | 16.09 | Overcast | OVC025 | 5 | 0.6 | 5.6 | 5 | 73% | 1 | 75.21 | 1002.8 | ||||
| 01 | 20:56 | SW 39 G 52 | 16.09 | Overcast and Breezy | OVC025 | 5 | 0 | 70% | -0 | 75.11 | 1001.5 | ||||||
| 01 | 19:56 | S 39 G 54 | 16.09 | Overcast and Breezy | OVC023 | 5.6 | 0.6 | 71% | 1 | 75.01 | 1000.0 | ||||||
| 01 | 18:56 | SW 33 G 54 | 16.09 | Mostly Cloudy and Breezy | FEW018 SCT026 BKN045 | 5.6 | 1.1 | 73% | 1 | 74.93 | 999.1 | ||||||
| 01 | 17:56 | SW 39 G 59 | 16.09 | Mostly Cloudy and Breezy | FEW018 SCT026 BKN045 | 5 | 1.1 | 76% | -0 | 74.83 | 998.0 | ||||||
| 01 | 16:56 | SW 35 G 59 | 16.09 | Mostly Cloudy and Breezy | FEW018 SCT024 BKN033 | 5 | 1.7 | 79% | 0 | 74.78 | 997.0 | ||||||
| 01 | 15:56 | SW 35 G 63 | 16.09 | Mostly Cloudy and Breezy | FEW020 SCT026 BKN035 | 5.6 | 1.7 | 5.6 | 4.4 | 76% | 1 | 74.7 | 996.0 | ||||
| 01 | 14:56 | S 50 G 65 | 16.09 | Mostly Cloudy and Windy | FEW019 SCT024 BKN030 | 5 | 1.7 | 79% | -1 | 74.57 | 994.5 | ||||||
| 01 | 13:56 | S 30 G 52 | 16.09 | Mostly Cloudy | FEW017 SCT022 BKN029 | 5 | 2.2 | 82% | 0 | 74.55 | 994.0 | ||||||
| Date | Time (akdt) | Wind (kph) | Vis. (km) | Weather | Sky Cond. | Air | Dwpt | Max. | Min. | Relative Humidity | Wind Chill (°C) | Heat Index (°C) | altimeter (cm) | sea level (mb) | 1 hr | 3 hr | 6 hr |
| 6 hour | |||||||||||||||||
| Temperature (ºC) | Pressure | Precipitation (cm) | |||||||||||||||